Stations météo

Publicité
Rodkallen, Suède (2188): Température de l'air & dewpoint: 13.11.2017 20:00:00 - 19.11.2017 20:00:00 (CET)Rodkallen, Suède (2188): Vitesse du vent & gusts: 13.11.2017 20:00:00 - 19.11.2017 20:00:00 (CET)Rodkallen, Suède (2188): Direction du vent: 13.11.2017 20:00:00 - 19.11.2017 20:00:00 (CET)Rodkallen, Suède (2188): visibility: 13.11.2017 20:00:00 - 19.11.2017 20:00:00 (CET)Rodkallen, Suède (2188): Quantités de précipitations: 13.11.2017 20:00:00 - 19.11.2017 20:00:00 (CET)
Date & Time tt [°C] td [°C] ff [km/h] ff [knt] fx [km/h] fx [knt] dd vv [km] rr [mm]
19.11.2017 20:00:00 -4,1 -5,6 32 17 48 26 N 4,2 0,1
19.11.2017 19:00:00 -4,2 -5,6 32 18 48 26 N 7 0,0
19.11.2017 18:00:00 -4,0 -5,5 37 20 46 25 N 12 0,0
19.11.2017 17:00:00 -4,1 -5,6 35 19 48 26 N 9 0,1
19.11.2017 16:00:00 -4,1 -5,5 36 20 48 26 N 15 0,0
19.11.2017 15:00:00 -4,2 -5,3 37 20 47 26 N 3,2 0,1
19.11.2017 14:00:00 -3,9 -5,2 34 19 45 24 N 2,9 0,1
19.11.2017 13:00:00 -3,6 -4,9 35 19 44 24 N 16 0,0
19.11.2017 12:00:00 -3,5 -4,8 35 19 43 23 N 44 0,0
19.11.2017 11:00:00 -4,3 -5,4 35 19 43 23 N 38 0,0
19.11.2017 10:00:00 -4,2 -5,2 34 19 42 23 N 26 0,0
19.11.2017 09:00:00 -4,4 -5,5 33 18 42 23 N 8 0,0
19.11.2017 08:00:00 -4,4 -5,5 34 18 42 23 N 31 0,0
19.11.2017 07:00:00 -4,1 -5,1 32 17 42 23 N 21 0,0
19.11.2017 06:00:00 -4,1 -5,2 33 18 42 23 N 25 0,0
19.11.2017 05:00:00 -3,9 -5,0 34 18 45 24 N 40 0,0
19.11.2017 04:00:00 -4,1 -5,2 35 19 45 24 N 31 0,0
19.11.2017 03:00:00 -4,3 -5,4 36 20 45 24 N 32 0,0
19.11.2017 02:00:00 -4,5 -5,9 30 16 42 23 N 16 0,0
19.11.2017 01:00:00 -4,8 -6,2 29 16 39 21 N 20 0,0
19.11.2017 00:00:00 -5,1 -6,5 28 15 40 22 N 20 0,0
18.11.2017 23:00:00 -5,1 -6,8 31 17 40 22 N 17 0,0
18.11.2017 22:00:00 -4,7 -6,4 24 13 33 18 N 29 0,0
18.11.2017 21:00:00 -4,7 -6,2 21 11 31 17 N 28 0,0
18.11.2017 20:00:00 -4,7 -6,2 22 12 34 18 N 35 0,0
18.11.2017 19:00:00 -4,7 -6,4 23 13 36 19 N 23 0,0
18.11.2017 18:00:00 -4,3 -6,0 22 12 36 19 N 14 0,0
18.11.2017 17:00:00 -4,2 -5,7 24 13 35 19 NNW 5 0,1
18.11.2017 16:00:00 -4,2 -5,7 21 11 33 18 NNW 7 0,1
18.11.2017 15:00:00 -4,2 -5,7 19 10 33 18 NNW 3,6 0,0
18.11.2017 14:00:00 -4,3 -5,8 22 12 30 16 NNW 4,0 0,1
18.11.2017 13:00:00 -4,5 -6,2 17 9 33 18 NNW 7 0,0
18.11.2017 12:00:00 -4,6 -6,4 22 12 33 18 NNW 4,9 0,0
18.11.2017 11:00:00 -4,7 -6,5 21 11 33 18 NNW 6 0,0
18.11.2017 10:00:00 -4,6 -6,4 20 11 31 17 NNW 3,1 0,1
18.11.2017 09:00:00 -4,7 -6,4 20 11 32 17 NNW 2,5 0,2
18.11.2017 08:00:00 -4,7 -6,8 20 11 32 17 NNW 3,7 0,1
18.11.2017 07:00:00 -4,7 -6,7 19 11 32 17 NW 3,5 0,1
18.11.2017 06:00:00 -4,3 -6,3 21 11 35 19 NW 4,3 0,1
18.11.2017 05:00:00 -4,1 -5,9 22 12 39 21 NW 4,2 0,1
18.11.2017 04:00:00 -3,8 -5,5 24 13 39 21 NW 4,6 0,1
18.11.2017 03:00:00 -3,7 -5,2 23 13 37 20 NW 3,1 0,1
18.11.2017 02:00:00 -3,7 -5,1 24 13 39 21 NW 3,7 0,1
18.11.2017 01:00:00 -3,5 -4,9 26 14 39 21 NW 2,7 0,1
18.11.2017 00:00:00 -3,2 -4,6 28 15 40 21 NW 3,2 0,1
17.11.2017 23:00:00 -3,0 -4,3 28 15 40 22 NW 3,8 0,1
17.11.2017 22:00:00 -2,9 -3,9 29 15 40 22 NW 2,3 0,1
17.11.2017 21:00:00 -2,7 -3,4 29 16 40 22 NW 2,4 0,2
17.11.2017 20:00:00 -2,2 -2,8 29 16 40 22 WNW 1,9 0,2
17.11.2017 19:00:00 -1,5 -1,9 29 15 39 21 NW 1,6 0,4
17.11.2017 18:00:00 0,0 -0,4 26 14 36 19 NW 2,7 0,3
17.11.2017 17:00:00 1,2 0,6 17 9 25 13 NNW 11 0,8
17.11.2017 16:00:00 1,2 0,6 14 7 19 11 N 8 1,5
17.11.2017 15:00:00 2,0 1,3 13 7 23 13 NE 7 0,4
17.11.2017 14:00:00 1,9 1,2 18 10 23 13 ENE 14 0,3
17.11.2017 13:00:00 1,6 0,9 19 10 28 15 E 16 0,4
17.11.2017 12:00:00 1,5 0,6 18 10 32 18 ESE 12 0,8
17.11.2017 11:00:00 2,3 1,3 23 12 40 22 ESE 10 1,0
17.11.2017 10:00:00 2,2 1,2 28 15 43 23 SE 12 1,0
17.11.2017 09:00:00 2,3 1,3 35 19 46 25 SE 8 0,7
17.11.2017 08:00:00 2,0 1,0 36 20 46 25 SE 13 1,1
17.11.2017 07:00:00 2,7 1,7 35 19 50 27 SE 6 1,5
17.11.2017 06:00:00 2,8 1,6 41 22 50 27 SE 7 1,7
17.11.2017 05:00:00 2,6 1,7 36 19 46 25 SE 5 1,8
17.11.2017 04:00:00 1,7 0,8 35 19 44 24 ESE 4,5 1,1
17.11.2017 03:00:00 2,5 1,5 30 16 37 20 SE 6 0,8
17.11.2017 02:00:00 2,4 0,5 26 14 33 18 SE 14 0,1
17.11.2017 01:00:00 2,0 0,1 10 6 13 7 ESE 46 0,0
17.11.2017 00:00:00 1,0 -0,8 0 0 13 7 N 50 0,0
16.11.2017 23:00:00 1,1 -1,0 8 4 17 9 S 50 0,0
16.11.2017 22:00:00 0,4 -1,7 9 5 22 12 SSW 50 0,0
16.11.2017 21:00:00 0,5 -1,7 16 8 31 17 SW 50 0,0
16.11.2017 20:00:00 0,8 -1,8 20 11 31 17 SW 50 0,0
16.11.2017 19:00:00 0,8 -2,1 17 9 24 13 SSW 47 0,0
16.11.2017 18:00:00 0,6 -2,3 16 9 24 13 WSW 50 0,0
16.11.2017 17:00:00 0,8 -2,1 19 10 22 12 SW 48 0,0
16.11.2017 16:00:00 1,1 -2,1 13 7 33 18 SW 50 0,0
16.11.2017 15:00:00 1,3 -1,9 19 10 33 18 SW 50 0,0
16.11.2017 14:00:00 1,0 -2,1 24 13 32 17 WSW 50 0,0
16.11.2017 13:00:00 0,7 -2,7 23 12 27 15 WSW 50 0,0
16.11.2017 12:00:00 0,3 -2,9 21 11 27 15 SW 50 0,0
16.11.2017 11:00:00 0,1 -2,9 23 12 27 15 SW 39 0,0
16.11.2017 10:00:00 -0,8 -3,8 20 11 25 13 SW 38 0,0
16.11.2017 09:00:00 -1,9 -4,6 12 6 25 13 WSW 50 0,0
16.11.2017 08:00:00 -3,3 -5,8 16 9 21 12 W 50 0,0
16.11.2017 07:00:00 -4,2 -6,3 11 6 27 15 W 50 0,0
16.11.2017 06:00:00 -5,9 -8,5 10 6 27 15 WNW 50 0,0
16.11.2017 05:00:00 -6,0 -8,4 19 11 26 14 NW 50 0,0
16.11.2017 04:00:00 -6,3 -8,6 17 9 27 15 NW 50 0,0
16.11.2017 03:00:00 -6,8 -8,9 20 11 27 15 NW 50 0,0
16.11.2017 02:00:00 -6,6 -8,5 14 8 23 12 NW 50 0,0
16.11.2017 01:00:00 -6,0 -7,8 14 8 23 13 WNW 50 0,0
16.11.2017 00:00:00 -5,4 -7,5 16 9 22 12 NW 50 0,0
15.11.2017 23:00:00 -5,5 -8,1 14 7 20 11 NW 50 0,0
15.11.2017 22:00:00 -5,1 -7,2 12 7 17 9 NW 50 0,0
15.11.2017 21:00:00 -4,8 -6,6 9 5 14 7 NW 50 0,0
15.11.2017 20:00:00 -4,1 -6,2 10 5 13 7 NW 50 0,0
15.11.2017 19:00:00 -4,1 -5,8 7 4 13 7 NW 50 0,0
15.11.2017 18:00:00 -3,3 -6,3 6 3 17 9 WNW 50 0,0
15.11.2017 17:00:00 -2,9 -4,6 11 6 22 12 W 50 0,0
15.11.2017 16:00:00 -1,9 -4,1 13 7 23 12 WSW 50 0,0
15.11.2017 15:00:00 -1,2 -3,7 18 10 23 12 SW 50 0,0
15.11.2017 14:00:00 -1,5 -3,8 9 5 18 10 SSW 50 0,0
15.11.2017 13:00:00 -1,3 -3,7 11 6 17 9 SW 50 0,0
15.11.2017 12:00:00 -1,7 -4,0 13 7 22 12 WSW 48 0,0
15.11.2017 11:00:00 -1,8 -4,0 14 7 29 16 WSW 49 0,0
15.11.2017 10:00:00 -1,4 -3,4 18 10 29 16 WSW 50 0,0
15.11.2017 09:00:00 -1,1 -2,8 25 14 29 16 SW 50 0,0
15.11.2017 08:00:00 -0,9 -2,9 15 8 24 13 SW 50 0,0
15.11.2017 07:00:00 -0,5 -2,7 18 10 21 11 SW 50 0,0
15.11.2017 06:00:00 -1,3 -4,1 13 7 19 10 WSW 50 0,0
15.11.2017 05:00:00 -1,1 -3,6 11 6 19 10 SW 50 0,0
15.11.2017 04:00:00 -1,2 -3,9 13 7 19 10 WSW 50 0,0
15.11.2017 03:00:00 -1,1 -4,1 14 8 22 12 WSW 50 0,0
15.11.2017 02:00:00 -1,1 -3,8 18 10 22 12 W 50 0,0
15.11.2017 01:00:00 -1,1 -4,3 17 9 24 13 WSW 50 0,0
15.11.2017 00:00:00 -0,9 -3,9 16 9 24 13 W 50 0,0
14.11.2017 23:00:00 -0,4 -3,1 18 10 23 12 W 50 0,0
14.11.2017 22:00:00 -0,6 -3,1 20 11 23 12 W 50 0,0
14.11.2017 21:00:00 -0,1 -2,5 17 9 21 11 WSW 50 0,0
14.11.2017 20:00:00 0,0 -2,9 17 9 23 12 WSW 50 0,0
14.11.2017 19:00:00 0,2 -2,5 17 9 23 12 W 50 0,0
14.11.2017 18:00:00 -0,2 -2,9 17 9 21 12 W 50 0,0
14.11.2017 17:00:00 -0,1 -3,1 16 8 21 12 W 50 0,0
14.11.2017 16:00:00 0,1 -2,6 16 9 21 11 W 50 0,0
14.11.2017 15:00:00 0,0 -2,7 16 8 18 10 W 50 0,0
14.11.2017 14:00:00 -1,2 -3,2 9 5 14 8 WNW 50 0,0
14.11.2017 13:00:00 -0,9 -2,6 10 5 15 8 WNW 50 0,0
14.11.2017 12:00:00 -0,8 -1,9 10 5 16 9 WNW 50 0,0
14.11.2017 11:00:00 -0,9 -1,9 12 6 16 9 NW 50 0,0
14.11.2017 10:00:00 -1,4 -2,1 9 5 16 9 NW 50 0,0
14.11.2017 09:00:00 -1,0 -1,6 10 6 16 8 NW 50 0,0
14.11.2017 08:00:00 -0,8 -1,4 11 6 16 8 NW 50 0,0
14.11.2017 07:00:00 -1,0 -1,4 11 6 17 9 WNW 43 0,0
14.11.2017 06:00:00 -1,1 -1,5 10 6 18 10 NW 4,3 0,2
14.11.2017 05:00:00 -1,0 -1,6 13 7 19 10 WNW 1,6 0,6
14.11.2017 04:00:00 -0,7 -1,7 15 8 21 11 WNW 1,2 0,3
14.11.2017 03:00:00 -0,4 -2,0 16 9 21 11 W 10 0,0
14.11.2017 02:00:00 -0,3 -2,4 13 7 18 10 W 50 0,0
14.11.2017 01:00:00 0,0 -2,5 13 7 20 11 W 50 0,0
14.11.2017 00:00:00 -0,1 -3,1 14 8 20 11 WNW 50 0,0
13.11.2017 23:00:00 -0,2 -3,1 15 8 20 11 WNW 50 0,0
13.11.2017 22:00:00 -0,5 -3,2 16 9 22 12 WNW 50 0,0
13.11.2017 21:00:00 -0,4 -3,3 14 7 24 13 WNW 50 0,0
13.11.2017 20:00:00 -0,1 -2,3 13 7 24 13 WNW 50 0,0

tt = Température de l'air
td = dewpoint
ff = Vitesse du vent
fx = gusts
dd = Direction du vent
vv = visibility
rr = Quantités de précipitations

stations d'obs. à proximité